sensor_id;sensor_type;location;lat;lon;timestamp;P1;durP1;ratioP1;P2;durP2;ratioP2
12306;SDS011;6216;51.146;7.008;2022-11-27T00:00:56;4.53;;;4.13;;
12306;SDS011;6216;51.146;7.008;2022-11-27T00:03:25;4.73;;;4.23;;
12306;SDS011;6216;51.146;7.008;2022-11-27T00:05:54;5.77;;;3.80;;
12306;SDS011;6216;51.146;7.008;2022-11-27T00:08:24;4.40;;;4.00;;
12306;SDS011;6216;51.146;7.008;2022-11-27T00:10:52;7.37;;;4.30;;
12306;SDS011;6216;51.146;7.008;2022-11-27T00:13:19;5.20;;;3.80;;
12306;SDS011;6216;51.146;7.008;2022-11-27T00:15:47;4.63;;;3.63;;
12306;SDS011;6216;51.146;7.008;2022-11-27T00:18:15;5.67;;;3.53;;
12306;SDS011;6216;51.146;7.008;2022-11-27T00:20:44;4.67;;;3.67;;
12306;SDS011;6216;51.146;7.008;2022-11-27T00:23:12;3.67;;;3.20;;
12306;SDS011;6216;51.146;7.008;2022-11-27T00:25:43;5.00;;;3.60;;
12306;SDS011;6216;51.146;7.008;2022-11-27T00:28:16;4.00;;;3.10;;
12306;SDS011;6216;51.146;7.008;2022-11-27T00:30:44;5.37;;;3.83;;
12306;SDS011;6216;51.146;7.008;2022-11-27T00:33:12;5.17;;;3.83;;
12306;SDS011;6216;51.146;7.008;2022-11-27T00:35:40;3.80;;;3.27;;
12306;SDS011;6216;51.146;7.008;2022-11-27T00:38:10;3.47;;;3.10;;
12306;SDS011;6216;51.146;7.008;2022-11-27T00:40:37;4.17;;;3.50;;
12306;SDS011;6216;51.146;7.008;2022-11-27T00:43:05;5.07;;;3.83;;
12306;SDS011;6216;51.146;7.008;2022-11-27T00:45:33;4.07;;;3.20;;
12306;SDS011;6216;51.146;7.008;2022-11-27T00:48:01;4.40;;;3.40;;
12306;SDS011;6216;51.146;7.008;2022-11-27T00:50:29;3.57;;;3.07;;
12306;SDS011;6216;51.146;7.008;2022-11-27T00:52:57;3.97;;;3.27;;
12306;SDS011;6216;51.146;7.008;2022-11-27T00:55:27;3.40;;;3.10;;
12306;SDS011;6216;51.146;7.008;2022-11-27T00:57:54;4.80;;;2.90;;
12306;SDS011;6216;51.146;7.008;2022-11-27T01:00:22;2.97;;;2.67;;
12306;SDS011;6216;51.146;7.008;2022-11-27T01:02:50;4.20;;;3.07;;
12306;SDS011;6216;51.146;7.008;2022-11-27T01:05:18;2.70;;;2.50;;
12306;SDS011;6216;51.146;7.008;2022-11-27T01:07:46;4.00;;;3.00;;
12306;SDS011;6216;51.146;7.008;2022-11-27T01:10:14;3.63;;;3.07;;
12306;SDS011;6216;51.146;7.008;2022-11-27T01:12:44;3.90;;;2.77;;
12306;SDS011;6216;51.146;7.008;2022-11-27T01:15:14;3.50;;;2.70;;
12306;SDS011;6216;51.146;7.008;2022-11-27T01:17:42;3.50;;;2.90;;
12306;SDS011;6216;51.146;7.008;2022-11-27T01:20:11;3.50;;;2.80;;
12306;SDS011;6216;51.146;7.008;2022-11-27T01:22:39;2.97;;;2.67;;
12306;SDS011;6216;51.146;7.008;2022-11-27T01:25:07;2.63;;;2.43;;
12306;SDS011;6216;51.146;7.008;2022-11-27T01:27:35;3.60;;;2.70;;
12306;SDS011;6216;51.146;7.008;2022-11-27T01:30:05;3.10;;;2.60;;
12306;SDS011;6216;51.146;7.008;2022-11-27T01:32:34;3.40;;;2.70;;
12306;SDS011;6216;51.146;7.008;2022-11-27T01:35:02;3.33;;;2.37;;
12306;SDS011;6216;51.146;7.008;2022-11-27T01:37:30;3.30;;;2.20;;
12306;SDS011;6216;51.146;7.008;2022-11-27T01:39:57;5.13;;;2.77;;
12306;SDS011;6216;51.146;7.008;2022-11-27T01:42:25;2.67;;;2.20;;
12306;SDS011;6216;51.146;7.008;2022-11-27T01:44:53;2.43;;;2.23;;
12306;SDS011;6216;51.146;7.008;2022-11-27T01:47:33;2.60;;;2.40;;
12306;SDS011;6216;51.146;7.008;2022-11-27T01:50:11;2.40;;;2.20;;
12306;SDS011;6216;51.146;7.008;2022-11-27T01:52:44;2.57;;;2.20;;
12306;SDS011;6216;51.146;7.008;2022-11-27T01:55:18;2.77;;;2.40;;
12306;SDS011;6216;51.146;7.008;2022-11-27T01:57:52;2.57;;;2.17;;
12306;SDS011;6216;51.146;7.008;2022-11-27T02:00:22;3.33;;;2.53;;
12306;SDS011;6216;51.146;7.008;2022-11-27T02:02:52;2.87;;;2.07;;
12306;SDS011;6216;51.146;7.008;2022-11-27T02:05:21;2.17;;;1.93;;
12306;SDS011;6216;51.146;7.008;2022-11-27T02:07:51;2.40;;;2.17;;
12306;SDS011;6216;51.146;7.008;2022-11-27T02:10:19;2.33;;;1.90;;
12306;SDS011;6216;51.146;7.008;2022-11-27T02:12:51;2.60;;;2.40;;
12306;SDS011;6216;51.146;7.008;2022-11-27T02:15:25;2.70;;;2.17;;
12306;SDS011;6216;51.146;7.008;2022-11-27T02:18:02;4.30;;;2.17;;
12306;SDS011;6216;51.146;7.008;2022-11-27T02:20:39;2.43;;;1.90;;
12306;SDS011;6216;51.146;7.008;2022-11-27T02:23:29;2.33;;;2.00;;
12306;SDS011;6216;51.146;7.008;2022-11-27T02:26:16;2.30;;;2.10;;
12306;SDS011;6216;51.146;7.008;2022-11-27T02:29:02;2.80;;;1.93;;
12306;SDS011;6216;51.146;7.008;2022-11-27T02:31:34;2.40;;;2.07;;
12306;SDS011;6216;51.146;7.008;2022-11-27T02:34:10;1.90;;;1.70;;
12306;SDS011;6216;51.146;7.008;2022-11-27T02:36:46;3.20;;;1.90;;
12306;SDS011;6216;51.146;7.008;2022-11-27T02:39:20;2.07;;;1.80;;
12306;SDS011;6216;51.146;7.008;2022-11-27T02:41:53;2.37;;;1.90;;
12306;SDS011;6216;51.146;7.008;2022-11-27T02:44:27;2.50;;;2.17;;
12306;SDS011;6216;51.146;7.008;2022-11-27T02:46:57;2.83;;;1.90;;
12306;SDS011;6216;51.146;7.008;2022-11-27T02:49:26;2.37;;;2.07;;
12306;SDS011;6216;51.146;7.008;2022-11-27T02:51:56;2.67;;;1.77;;
12306;SDS011;6216;51.146;7.008;2022-11-27T02:54:26;2.63;;;1.83;;
12306;SDS011;6216;51.146;7.008;2022-11-27T02:56:57;2.03;;;1.83;;
12306;SDS011;6216;51.146;7.008;2022-11-27T02:59:30;2.30;;;2.10;;
12306;SDS011;6216;51.146;7.008;2022-11-27T03:02:00;1.67;;;1.53;;
12306;SDS011;6216;51.146;7.008;2022-11-27T03:04:32;1.80;;;1.60;;
12306;SDS011;6216;51.146;7.008;2022-11-27T03:07:06;7.23;;;2.30;;
12306;SDS011;6216;51.146;7.008;2022-11-27T03:09:39;2.20;;;1.93;;
12306;SDS011;6216;51.146;7.008;2022-11-27T03:12:09;1.73;;;1.63;;
12306;SDS011;6216;51.146;7.008;2022-11-27T03:14:41;1.73;;;1.50;;
12306;SDS011;6216;51.146;7.008;2022-11-27T03:17:10;2.17;;;1.97;;
12306;SDS011;6216;51.146;7.008;2022-11-27T03:19:49;2.43;;;1.80;;
12306;SDS011;6216;51.146;7.008;2022-11-27T03:22:21;1.83;;;1.73;;
12306;SDS011;6216;51.146;7.008;2022-11-27T03:24:51;2.03;;;1.73;;
12306;SDS011;6216;51.146;7.008;2022-11-27T03:27:20;1.90;;;1.70;;
12306;SDS011;6216;51.146;7.008;2022-11-27T03:30:00;2.27;;;1.80;;
12306;SDS011;6216;51.146;7.008;2022-11-27T03:32:30;1.80;;;1.70;;
12306;SDS011;6216;51.146;7.008;2022-11-27T03:34:59;1.97;;;1.87;;
12306;SDS011;6216;51.146;7.008;2022-11-27T03:37:27;2.13;;;1.73;;
12306;SDS011;6216;51.146;7.008;2022-11-27T03:39:55;1.70;;;1.60;;
12306;SDS011;6216;51.146;7.008;2022-11-27T03:42:24;1.83;;;1.73;;
12306;SDS011;6216;51.146;7.008;2022-11-27T03:44:59;1.93;;;1.73;;
12306;SDS011;6216;51.146;7.008;2022-11-27T03:47:35;1.80;;;1.70;;
12306;SDS011;6216;51.146;7.008;2022-11-27T03:50:16;1.97;;;1.73;;
12306;SDS011;6216;51.146;7.008;2022-11-27T03:52:56;2.07;;;1.90;;
12306;SDS011;6216;51.146;7.008;2022-11-27T03:55:30;1.87;;;1.77;;
12306;SDS011;6216;51.146;7.008;2022-11-27T03:58:07;2.63;;;2.13;;
12306;SDS011;6216;51.146;7.008;2022-11-27T04:00:42;2.13;;;1.57;;
12306;SDS011;6216;51.146;7.008;2022-11-27T04:03:12;2.50;;;2.10;;
12306;SDS011;6216;51.146;7.008;2022-11-27T04:05:40;2.47;;;1.73;;
12306;SDS011;6216;51.146;7.008;2022-11-27T04:08:08;2.00;;;1.77;;
12306;SDS011;6216;51.146;7.008;2022-11-27T04:10:35;2.23;;;1.97;;
12306;SDS011;6216;51.146;7.008;2022-11-27T04:13:03;1.97;;;1.77;;
12306;SDS011;6216;51.146;7.008;2022-11-27T04:15:31;2.17;;;1.97;;
12306;SDS011;6216;51.146;7.008;2022-11-27T04:18:00;2.07;;;1.90;;
12306;SDS011;6216;51.146;7.008;2022-11-27T04:20:28;2.10;;;1.80;;
12306;SDS011;6216;51.146;7.008;2022-11-27T04:22:56;1.90;;;1.70;;
12306;SDS011;6216;51.146;7.008;2022-11-27T04:25:24;1.87;;;1.77;;
12306;SDS011;6216;51.146;7.008;2022-11-27T04:27:52;2.30;;;2.10;;
12306;SDS011;6216;51.146;7.008;2022-11-27T04:30:20;3.30;;;1.70;;
12306;SDS011;6216;51.146;7.008;2022-11-27T04:32:48;2.20;;;2.00;;
12306;SDS011;6216;51.146;7.008;2022-11-27T04:35:17;2.27;;;1.93;;
12306;SDS011;6216;51.146;7.008;2022-11-27T04:37:45;1.87;;;1.77;;
12306;SDS011;6216;51.146;7.008;2022-11-27T04:40:13;2.00;;;1.80;;
12306;SDS011;6216;51.146;7.008;2022-11-27T04:42:41;2.50;;;1.87;;
12306;SDS011;6216;51.146;7.008;2022-11-27T04:45:09;2.03;;;1.83;;
12306;SDS011;6216;51.146;7.008;2022-11-27T04:47:37;2.20;;;2.00;;
12306;SDS011;6216;51.146;7.008;2022-11-27T04:50:05;2.20;;;2.00;;
12306;SDS011;6216;51.146;7.008;2022-11-27T04:52:36;2.03;;;1.83;;
12306;SDS011;6216;51.146;7.008;2022-11-27T04:55:04;2.30;;;1.67;;
12306;SDS011;6216;51.146;7.008;2022-11-27T04:57:33;1.80;;;1.70;;
12306;SDS011;6216;51.146;7.008;2022-11-27T05:00:01;2.40;;;2.03;;
12306;SDS011;6216;51.146;7.008;2022-11-27T05:02:30;2.40;;;1.70;;
12306;SDS011;6216;51.146;7.008;2022-11-27T05:04:58;2.23;;;2.03;;
12306;SDS011;6216;51.146;7.008;2022-11-27T05:07:26;1.97;;;1.83;;
12306;SDS011;6216;51.146;7.008;2022-11-27T05:09:55;1.80;;;1.63;;
12306;SDS011;6216;51.146;7.008;2022-11-27T05:12:23;3.07;;;1.80;;
12306;SDS011;6216;51.146;7.008;2022-11-27T05:14:51;2.40;;;1.80;;
12306;SDS011;6216;51.146;7.008;2022-11-27T05:17:19;2.13;;;1.90;;
12306;SDS011;6216;51.146;7.008;2022-11-27T05:19:46;1.90;;;1.80;;
12306;SDS011;6216;51.146;7.008;2022-11-27T05:22:14;1.80;;;1.70;;
12306;SDS011;6216;51.146;7.008;2022-11-27T05:24:42;1.77;;;1.67;;
12306;SDS011;6216;51.146;7.008;2022-11-27T05:27:11;1.80;;;1.70;;
12306;SDS011;6216;51.146;7.008;2022-11-27T05:29:40;1.90;;;1.70;;
12306;SDS011;6216;51.146;7.008;2022-11-27T05:32:08;1.83;;;1.67;;
12306;SDS011;6216;51.146;7.008;2022-11-27T05:34:36;1.83;;;1.73;;
12306;SDS011;6216;51.146;7.008;2022-11-27T05:37:05;1.90;;;1.73;;
12306;SDS011;6216;51.146;7.008;2022-11-27T05:39:32;1.60;;;1.50;;
12306;SDS011;6216;51.146;7.008;2022-11-27T05:42:00;2.07;;;1.87;;
12306;SDS011;6216;51.146;7.008;2022-11-27T05:44:29;3.13;;;1.80;;
12306;SDS011;6216;51.146;7.008;2022-11-27T05:46:57;1.97;;;1.87;;
12306;SDS011;6216;51.146;7.008;2022-11-27T05:49:25;3.13;;;2.00;;
12306;SDS011;6216;51.146;7.008;2022-11-27T05:51:53;1.83;;;1.70;;
12306;SDS011;6216;51.146;7.008;2022-11-27T05:54:21;1.93;;;1.70;;
12306;SDS011;6216;51.146;7.008;2022-11-27T05:56:49;1.90;;;1.80;;
12306;SDS011;6216;51.146;7.008;2022-11-27T05:59:17;2.13;;;1.93;;
12306;SDS011;6216;51.146;7.008;2022-11-27T06:01:46;1.67;;;1.57;;
12306;SDS011;6216;51.146;7.008;2022-11-27T06:04:15;1.60;;;1.50;;
12306;SDS011;6216;51.146;7.008;2022-11-27T06:06:43;1.77;;;1.63;;
12306;SDS011;6216;51.146;7.008;2022-11-27T06:09:11;1.70;;;1.60;;
12306;SDS011;6216;51.146;7.008;2022-11-27T06:11:39;1.97;;;1.70;;
12306;SDS011;6216;51.146;7.008;2022-11-27T06:14:08;2.10;;;1.77;;
12306;SDS011;6216;51.146;7.008;2022-11-27T06:16:37;2.03;;;1.80;;
12306;SDS011;6216;51.146;7.008;2022-11-27T06:19:06;1.57;;;1.47;;
12306;SDS011;6216;51.146;7.008;2022-11-27T06:21:35;1.70;;;1.60;;
12306;SDS011;6216;51.146;7.008;2022-11-27T06:24:03;1.70;;;1.60;;
12306;SDS011;6216;51.146;7.008;2022-11-27T06:26:31;1.60;;;1.47;;
12306;SDS011;6216;51.146;7.008;2022-11-27T06:29:00;2.07;;;1.70;;
12306;SDS011;6216;51.146;7.008;2022-11-27T06:31:28;1.93;;;1.70;;
12306;SDS011;6216;51.146;7.008;2022-11-27T06:33:57;1.90;;;1.43;;
12306;SDS011;6216;51.146;7.008;2022-11-27T06:36:27;1.87;;;1.77;;
12306;SDS011;6216;51.146;7.008;2022-11-27T06:38:56;1.63;;;1.40;;
12306;SDS011;6216;51.146;7.008;2022-11-27T06:41:24;1.70;;;1.53;;
12306;SDS011;6216;51.146;7.008;2022-11-27T06:43:53;1.70;;;1.60;;
12306;SDS011;6216;51.146;7.008;2022-11-27T06:46:23;1.73;;;1.60;;
12306;SDS011;6216;51.146;7.008;2022-11-27T06:48:52;2.30;;;1.67;;
12306;SDS011;6216;51.146;7.008;2022-11-27T06:51:21;1.53;;;1.43;;
12306;SDS011;6216;51.146;7.008;2022-11-27T06:53:53;1.53;;;1.43;;
12306;SDS011;6216;51.146;7.008;2022-11-27T06:56:21;1.97;;;1.40;;
12306;SDS011;6216;51.146;7.008;2022-11-27T06:58:52;2.40;;;1.80;;
12306;SDS011;6216;51.146;7.008;2022-11-27T07:01:23;3.43;;;1.70;;
12306;SDS011;6216;51.146;7.008;2022-11-27T07:03:52;2.83;;;1.57;;
12306;SDS011;6216;51.146;7.008;2022-11-27T07:06:20;9.63;;;2.10;;
12306;SDS011;6216;51.146;7.008;2022-11-27T07:08:50;6.77;;;2.03;;
12306;SDS011;6216;51.146;7.008;2022-11-27T07:11:21;1.80;;;1.70;;
12306;SDS011;6216;51.146;7.008;2022-11-27T07:13:51;2.43;;;1.83;;
12306;SDS011;6216;51.146;7.008;2022-11-27T07:16:20;5.53;;;1.97;;
12306;SDS011;6216;51.146;7.008;2022-11-27T07:18:49;6.53;;;1.77;;
12306;SDS011;6216;51.146;7.008;2022-11-27T07:21:19;7.70;;;1.83;;
12306;SDS011;6216;51.146;7.008;2022-11-27T07:23:48;8.60;;;3.10;;
12306;SDS011;6216;51.146;7.008;2022-11-27T07:26:16;5.63;;;1.83;;
12306;SDS011;6216;51.146;7.008;2022-11-27T07:28:47;7.50;;;2.27;;
12306;SDS011;6216;51.146;7.008;2022-11-27T07:31:17;5.23;;;2.00;;
12306;SDS011;6216;51.146;7.008;2022-11-27T07:33:46;5.73;;;2.20;;
12306;SDS011;6216;51.146;7.008;2022-11-27T07:36:15;3.03;;;1.87;;
12306;SDS011;6216;51.146;7.008;2022-11-27T07:38:44;5.93;;;1.83;;
12306;SDS011;6216;51.146;7.008;2022-11-27T07:41:12;3.63;;;1.50;;
12306;SDS011;6216;51.146;7.008;2022-11-27T07:43:41;4.17;;;2.13;;
12306;SDS011;6216;51.146;7.008;2022-11-27T07:46:11;6.33;;;2.03;;
12306;SDS011;6216;51.146;7.008;2022-11-27T07:48:41;5.87;;;2.50;;
12306;SDS011;6216;51.146;7.008;2022-11-27T07:51:09;4.70;;;1.87;;
12306;SDS011;6216;51.146;7.008;2022-11-27T07:53:39;4.70;;;1.90;;
12306;SDS011;6216;51.146;7.008;2022-11-27T07:56:08;19.87;;;6.83;;
12306;SDS011;6216;51.146;7.008;2022-11-27T07:58:37;17.10;;;4.67;;
12306;SDS011;6216;51.146;7.008;2022-11-27T08:01:05;19.13;;;5.17;;
12306;SDS011;6216;51.146;7.008;2022-11-27T08:03:36;21.93;;;6.13;;
12306;SDS011;6216;51.146;7.008;2022-11-27T08:06:04;17.60;;;5.70;;
12306;SDS011;6216;51.146;7.008;2022-11-27T08:08:39;15.40;;;4.77;;
12306;SDS011;6216;51.146;7.008;2022-11-27T08:11:13;20.70;;;5.40;;
12306;SDS011;6216;51.146;7.008;2022-11-27T08:13:41;15.20;;;5.53;;
12306;SDS011;6216;51.146;7.008;2022-11-27T08:16:09;15.17;;;5.47;;
12306;SDS011;6216;51.146;7.008;2022-11-27T08:18:38;17.27;;;5.20;;
12306;SDS011;6216;51.146;7.008;2022-11-27T08:21:06;12.07;;;5.20;;
12306;SDS011;6216;51.146;7.008;2022-11-27T08:23:35;15.67;;;5.27;;
12306;SDS011;6216;51.146;7.008;2022-11-27T08:26:06;14.17;;;4.57;;
12306;SDS011;6216;51.146;7.008;2022-11-27T08:28:36;18.50;;;4.93;;
12306;SDS011;6216;51.146;7.008;2022-11-27T08:31:05;10.17;;;4.10;;
12306;SDS011;6216;51.146;7.008;2022-11-27T08:33:34;14.20;;;5.10;;
12306;SDS011;6216;51.146;7.008;2022-11-27T08:36:04;11.90;;;4.03;;
12306;SDS011;6216;51.146;7.008;2022-11-27T08:38:37;11.23;;;4.13;;
12306;SDS011;6216;51.146;7.008;2022-11-27T08:41:06;15.37;;;5.17;;
12306;SDS011;6216;51.146;7.008;2022-11-27T08:43:34;10.93;;;3.97;;
12306;SDS011;6216;51.146;7.008;2022-11-27T08:46:02;11.50;;;4.00;;
12306;SDS011;6216;51.146;7.008;2022-11-27T08:48:31;8.90;;;3.70;;
12306;SDS011;6216;51.146;7.008;2022-11-27T08:51:03;7.23;;;3.47;;
12306;SDS011;6216;51.146;7.008;2022-11-27T08:53:33;9.37;;;4.33;;
12306;SDS011;6216;51.146;7.008;2022-11-27T08:56:06;12.37;;;3.87;;
12306;SDS011;6216;51.146;7.008;2022-11-27T08:58:36;13.00;;;4.40;;
12306;SDS011;6216;51.146;7.008;2022-11-27T09:01:06;8.40;;;4.03;;
12306;SDS011;6216;51.146;7.008;2022-11-27T09:03:35;8.27;;;4.03;;
12306;SDS011;6216;51.146;7.008;2022-11-27T09:06:09;8.43;;;3.77;;
12306;SDS011;6216;51.146;7.008;2022-11-27T09:08:38;7.83;;;3.50;;
12306;SDS011;6216;51.146;7.008;2022-11-27T09:11:06;7.37;;;3.87;;
12306;SDS011;6216;51.146;7.008;2022-11-27T09:13:36;5.63;;;3.20;;
12306;SDS011;6216;51.146;7.008;2022-11-27T09:16:06;11.23;;;3.80;;
12306;SDS011;6216;51.146;7.008;2022-11-27T09:18:35;9.43;;;3.87;;
12306;SDS011;6216;51.146;7.008;2022-11-27T09:21:04;7.97;;;3.60;;
12306;SDS011;6216;51.146;7.008;2022-11-27T09:23:35;8.23;;;3.20;;
12306;SDS011;6216;51.146;7.008;2022-11-27T09:26:04;5.97;;;3.57;;
12306;SDS011;6216;51.146;7.008;2022-11-27T09:28:33;4.93;;;3.10;;
12306;SDS011;6216;51.146;7.008;2022-11-27T09:31:03;8.77;;;3.27;;
12306;SDS011;6216;51.146;7.008;2022-11-27T09:33:35;9.47;;;3.37;;
12306;SDS011;6216;51.146;7.008;2022-11-27T09:36:04;6.60;;;3.40;;
12306;SDS011;6216;51.146;7.008;2022-11-27T09:38:33;8.30;;;3.53;;
12306;SDS011;6216;51.146;7.008;2022-11-27T09:41:04;8.57;;;3.40;;
12306;SDS011;6216;51.146;7.008;2022-11-27T09:43:39;7.37;;;3.17;;
12306;SDS011;6216;51.146;7.008;2022-11-27T09:46:12;7.67;;;3.50;;
12306;SDS011;6216;51.146;7.008;2022-11-27T09:48:46;8.43;;;3.43;;
12306;SDS011;6216;51.146;7.008;2022-11-27T09:51:18;6.17;;;3.23;;
12306;SDS011;6216;51.146;7.008;2022-11-27T09:53:54;5.97;;;2.97;;
12306;SDS011;6216;51.146;7.008;2022-11-27T09:56:26;7.30;;;2.80;;
12306;SDS011;6216;51.146;7.008;2022-11-27T09:58:56;9.07;;;2.73;;
12306;SDS011;6216;51.146;7.008;2022-11-27T10:01:26;8.10;;;3.13;;
12306;SDS011;6216;51.146;7.008;2022-11-27T10:04:08;7.50;;;3.10;;
12306;SDS011;6216;51.146;7.008;2022-11-27T10:06:39;9.57;;;2.93;;
12306;SDS011;6216;51.146;7.008;2022-11-27T10:09:23;4.40;;;3.03;;
12306;SDS011;6216;51.146;7.008;2022-11-27T10:12:01;12.63;;;3.37;;
12306;SDS011;6216;51.146;7.008;2022-11-27T10:14:41;5.53;;;2.63;;
12306;SDS011;6216;51.146;7.008;2022-11-27T10:17:24;10.97;;;3.07;;
12306;SDS011;6216;51.146;7.008;2022-11-27T10:20:00;9.13;;;3.00;;
12306;SDS011;6216;51.146;7.008;2022-11-27T10:22:40;9.77;;;2.93;;
12306;SDS011;6216;51.146;7.008;2022-11-27T10:25:15;5.90;;;2.60;;
12306;SDS011;6216;51.146;7.008;2022-11-27T10:27:49;11.67;;;2.60;;
12306;SDS011;6216;51.146;7.008;2022-11-27T10:30:27;11.87;;;2.67;;
12306;SDS011;6216;51.146;7.008;2022-11-27T10:32:57;5.00;;;2.30;;
12306;SDS011;6216;51.146;7.008;2022-11-27T10:35:29;16.43;;;3.10;;
12306;SDS011;6216;51.146;7.008;2022-11-27T10:37:59;7.90;;;3.37;;
12306;SDS011;6216;51.146;7.008;2022-11-27T10:40:35;9.57;;;2.67;;
12306;SDS011;6216;51.146;7.008;2022-11-27T10:43:07;4.70;;;2.10;;
12306;SDS011;6216;51.146;7.008;2022-11-27T10:45:39;11.90;;;3.00;;
12306;SDS011;6216;51.146;7.008;2022-11-27T10:48:12;8.50;;;2.60;;
12306;SDS011;6216;51.146;7.008;2022-11-27T10:50:41;9.30;;;2.70;;
12306;SDS011;6216;51.146;7.008;2022-11-27T10:53:13;8.53;;;2.57;;
12306;SDS011;6216;51.146;7.008;2022-11-27T10:55:54;10.27;;;2.50;;
12306;SDS011;6216;51.146;7.008;2022-11-27T10:58:31;12.53;;;3.10;;
12306;SDS011;6216;51.146;7.008;2022-11-27T11:01:03;4.63;;;2.20;;
12306;SDS011;6216;51.146;7.008;2022-11-27T11:03:33;5.83;;;2.43;;
12306;SDS011;6216;51.146;7.008;2022-11-27T11:06:02;4.03;;;2.27;;
12306;SDS011;6216;51.146;7.008;2022-11-27T11:08:59;6.80;;;2.50;;
12306;SDS011;6216;51.146;7.008;2022-11-27T11:11:30;8.97;;;2.33;;
12306;SDS011;6216;51.146;7.008;2022-11-27T11:13:58;5.63;;;2.43;;
12306;SDS011;6216;51.146;7.008;2022-11-27T11:16:26;18.90;;;2.43;;
12306;SDS011;6216;51.146;7.008;2022-11-27T11:19:00;4.47;;;1.90;;
12306;SDS011;6216;51.146;7.008;2022-11-27T11:21:32;9.13;;;2.50;;
12306;SDS011;6216;51.146;7.008;2022-11-27T11:24:05;6.70;;;2.00;;
12306;SDS011;6216;51.146;7.008;2022-11-27T11:26:44;10.83;;;2.47;;
12306;SDS011;6216;51.146;7.008;2022-11-27T11:29:20;11.23;;;3.03;;
12306;SDS011;6216;51.146;7.008;2022-11-27T11:31:54;12.70;;;3.00;;
12306;SDS011;6216;51.146;7.008;2022-11-27T11:34:24;8.93;;;2.47;;
12306;SDS011;6216;51.146;7.008;2022-11-27T11:36:55;6.27;;;2.40;;
12306;SDS011;6216;51.146;7.008;2022-11-27T11:39:24;11.53;;;2.67;;
12306;SDS011;6216;51.146;7.008;2022-11-27T11:41:59;11.50;;;3.37;;
12306;SDS011;6216;51.146;7.008;2022-11-27T11:44:34;14.03;;;6.83;;
12306;SDS011;6216;51.146;7.008;2022-11-27T11:47:05;17.87;;;6.73;;
12306;SDS011;6216;51.146;7.008;2022-11-27T11:49:41;17.90;;;6.40;;
12306;SDS011;6216;51.146;7.008;2022-11-27T11:52:11;26.93;;;11.27;;
12306;SDS011;6216;51.146;7.008;2022-11-27T11:54:56;29.83;;;14.43;;
12306;SDS011;6216;51.146;7.008;2022-11-27T11:57:31;17.20;;;10.90;;
12306;SDS011;6216;51.146;7.008;2022-11-27T12:00:19;30.50;;;12.87;;
12306;SDS011;6216;51.146;7.008;2022-11-27T12:03:01;44.20;;;17.63;;
12306;SDS011;6216;51.146;7.008;2022-11-27T12:05:47;49.63;;;20.47;;
12306;SDS011;6216;51.146;7.008;2022-11-27T12:08:33;69.03;;;27.67;;
12306;SDS011;6216;51.146;7.008;2022-11-27T12:11:10;77.93;;;34.83;;
12306;SDS011;6216;51.146;7.008;2022-11-27T12:13:51;67.43;;;35.30;;
12306;SDS011;6216;51.146;7.008;2022-11-27T12:16:28;49.10;;;19.40;;
12306;SDS011;6216;51.146;7.008;2022-11-27T12:19:10;40.40;;;19.30;;
12306;SDS011;6216;51.146;7.008;2022-11-27T12:21:53;64.57;;;32.97;;
12306;SDS011;6216;51.146;7.008;2022-11-27T12:24:33;66.13;;;33.80;;
12306;SDS011;6216;51.146;7.008;2022-11-27T12:27:12;61.00;;;33.07;;
12306;SDS011;6216;51.146;7.008;2022-11-27T12:30:01;63.50;;;30.83;;
12306;SDS011;6216;51.146;7.008;2022-11-27T12:32:53;55.10;;;30.57;;
12306;SDS011;6216;51.146;7.008;2022-11-27T12:35:40;60.80;;;31.00;;
12306;SDS011;6216;51.146;7.008;2022-11-27T12:38:25;58.50;;;29.73;;
12306;SDS011;6216;51.146;7.008;2022-11-27T12:41:11;58.00;;;29.30;;
12306;SDS011;6216;51.146;7.008;2022-11-27T12:43:57;58.03;;;30.17;;
12306;SDS011;6216;51.146;7.008;2022-11-27T12:46:29;53.53;;;28.40;;
12306;SDS011;6216;51.146;7.008;2022-11-27T12:49:03;56.47;;;27.87;;
12306;SDS011;6216;51.146;7.008;2022-11-27T12:51:37;48.57;;;28.00;;
12306;SDS011;6216;51.146;7.008;2022-11-27T12:54:08;46.73;;;26.60;;
12306;SDS011;6216;51.146;7.008;2022-11-27T12:56:41;46.53;;;26.60;;
12306;SDS011;6216;51.146;7.008;2022-11-27T12:59:15;54.27;;;25.87;;
12306;SDS011;6216;51.146;7.008;2022-11-27T13:01:51;44.97;;;24.87;;
12306;SDS011;6216;51.146;7.008;2022-11-27T13:04:29;16.17;;;9.57;;
12306;SDS011;6216;51.146;7.008;2022-11-27T13:07:04;14.43;;;7.13;;
12306;SDS011;6216;51.146;7.008;2022-11-27T13:09:38;7.17;;;5.00;;
12306;SDS011;6216;51.146;7.008;2022-11-27T13:12:16;7.47;;;4.30;;
12306;SDS011;6216;51.146;7.008;2022-11-27T13:14:49;7.17;;;4.60;;
12306;SDS011;6216;51.146;7.008;2022-11-27T13:17:22;7.00;;;4.83;;
12306;SDS011;6216;51.146;7.008;2022-11-27T13:19:55;8.30;;;4.73;;
12306;SDS011;6216;51.146;7.008;2022-11-27T13:22:26;10.13;;;4.93;;
12306;SDS011;6216;51.146;7.008;2022-11-27T13:24:59;12.60;;;5.00;;
12306;SDS011;6216;51.146;7.008;2022-11-27T13:27:28;11.23;;;4.17;;
12306;SDS011;6216;51.146;7.008;2022-11-27T13:29:59;13.10;;;4.80;;
12306;SDS011;6216;51.146;7.008;2022-11-27T13:32:31;9.57;;;4.57;;
12306;SDS011;6216;51.146;7.008;2022-11-27T13:35:17;9.70;;;3.97;;
12306;SDS011;6216;51.146;7.008;2022-11-27T13:37:48;9.93;;;4.50;;
12306;SDS011;6216;51.146;7.008;2022-11-27T13:40:27;12.73;;;4.10;;
12306;SDS011;6216;51.146;7.008;2022-11-27T13:42:58;11.57;;;4.50;;
12306;SDS011;6216;51.146;7.008;2022-11-27T13:45:32;12.40;;;4.40;;
12306;SDS011;6216;51.146;7.008;2022-11-27T13:48:14;11.03;;;4.10;;
12306;SDS011;6216;51.146;7.008;2022-11-27T13:50:51;10.70;;;4.07;;
12306;SDS011;6216;51.146;7.008;2022-11-27T13:53:28;8.40;;;4.03;;
12306;SDS011;6216;51.146;7.008;2022-11-27T13:55:57;11.67;;;3.70;;
12306;SDS011;6216;51.146;7.008;2022-11-27T13:58:27;6.53;;;3.53;;
12306;SDS011;6216;51.146;7.008;2022-11-27T14:00:56;14.30;;;3.57;;
12306;SDS011;6216;51.146;7.008;2022-11-27T14:03:27;8.93;;;3.10;;
12306;SDS011;6216;51.146;7.008;2022-11-27T14:05:56;15.20;;;3.83;;
12306;SDS011;6216;51.146;7.008;2022-11-27T14:08:25;6.93;;;3.80;;
12306;SDS011;6216;51.146;7.008;2022-11-27T14:10:56;8.40;;;3.63;;
12306;SDS011;6216;51.146;7.008;2022-11-27T14:13:34;6.67;;;3.87;;
12306;SDS011;6216;51.146;7.008;2022-11-27T14:16:08;4.80;;;3.20;;
12306;SDS011;6216;51.146;7.008;2022-11-27T14:18:49;7.60;;;3.23;;
12306;SDS011;6216;51.146;7.008;2022-11-27T14:21:23;11.23;;;3.90;;
12306;SDS011;6216;51.146;7.008;2022-11-27T14:23:52;6.67;;;2.90;;
12306;SDS011;6216;51.146;7.008;2022-11-27T14:26:22;8.40;;;2.90;;
12306;SDS011;6216;51.146;7.008;2022-11-27T14:28:51;6.10;;;3.33;;
12306;SDS011;6216;51.146;7.008;2022-11-27T14:31:24;6.47;;;3.13;;
12306;SDS011;6216;51.146;7.008;2022-11-27T14:33:55;5.53;;;2.80;;
12306;SDS011;6216;51.146;7.008;2022-11-27T14:36:43;4.83;;;3.00;;
12306;SDS011;6216;51.146;7.008;2022-11-27T14:39:19;5.47;;;2.73;;
12306;SDS011;6216;51.146;7.008;2022-11-27T14:41:54;6.30;;;2.87;;
12306;SDS011;6216;51.146;7.008;2022-11-27T14:44:23;5.00;;;3.10;;
12306;SDS011;6216;51.146;7.008;2022-11-27T14:46:51;5.40;;;2.90;;
12306;SDS011;6216;51.146;7.008;2022-11-27T14:49:22;5.67;;;3.10;;
12306;SDS011;6216;51.146;7.008;2022-11-27T14:51:52;4.90;;;2.47;;
12306;SDS011;6216;51.146;7.008;2022-11-27T14:54:24;7.03;;;3.00;;
12306;SDS011;6216;51.146;7.008;2022-11-27T14:56:54;5.07;;;2.87;;
12306;SDS011;6216;51.146;7.008;2022-11-27T14:59:23;5.23;;;2.80;;
12306;SDS011;6216;51.146;7.008;2022-11-27T15:01:59;5.43;;;2.80;;
12306;SDS011;6216;51.146;7.008;2022-11-27T15:04:32;4.90;;;2.80;;
12306;SDS011;6216;51.146;7.008;2022-11-27T15:07:03;3.20;;;2.40;;
12306;SDS011;6216;51.146;7.008;2022-11-27T15:09:32;3.77;;;2.60;;
12306;SDS011;6216;51.146;7.008;2022-11-27T15:12:04;14.70;;;2.73;;
12306;SDS011;6216;51.146;7.008;2022-11-27T15:14:43;3.87;;;2.50;;
12306;SDS011;6216;51.146;7.008;2022-11-27T15:17:14;3.57;;;2.50;;
12306;SDS011;6216;51.146;7.008;2022-11-27T15:19:45;10.47;;;2.87;;
12306;SDS011;6216;51.146;7.008;2022-11-27T15:22:14;3.63;;;2.40;;
12306;SDS011;6216;51.146;7.008;2022-11-27T15:24:43;6.73;;;2.80;;